Terminal Aerodrome Forecast
Issued by NWS Sioux Falls, SD

Home | Current Version | Previous Version | Text Only | Print | Product List | Glossary Off
Versions: 1 2 3 4 5 6 7 8 9 10 11 12 13 14 15 16 17 18

000
FTUS43 KFSD 242331
TAFHON
TAF
KHON 242331Z 2500/2524 32010KT P6SM SKC
     FM250500 26006KT P6SM SCT050 SCT200
     FM251000 20004KT 5SM BR SCT020 BKN050
     FM251900 16010KT P6SM BKN012=

USA.gov is the U.S. government's official web portal to all federal, state and local government web resources and services.